createdAt,value
2018-10-16T00:00:48.774Z,19.48
2018-10-16T00:03:16.020Z,17.27
2018-10-16T00:05:43.183Z,18.87
2018-10-16T00:08:10.367Z,19.95
2018-10-16T00:10:38.571Z,19.32
2018-10-16T00:13:06.083Z,18.00
2018-10-16T00:15:33.275Z,17.90
2018-10-16T00:18:00.536Z,17.55
2018-10-16T00:20:27.736Z,17.25
2018-10-16T00:22:54.939Z,16.60
2018-10-16T00:25:22.126Z,19.32
2018-10-16T00:27:49.311Z,17.62
2018-10-16T00:30:16.510Z,18.52
2018-10-16T00:32:43.744Z,18.62
2018-10-16T00:35:11.334Z,20.95
2018-10-16T00:37:38.703Z,20.97
2018-10-16T00:40:05.927Z,23.18
2018-10-16T00:42:33.132Z,22.70
2018-10-16T00:45:00.330Z,21.48
2018-10-16T00:47:27.536Z,22.30
2018-10-16T00:49:54.719Z,21.87
2018-10-16T00:52:21.917Z,23.55
2018-10-16T00:54:49.122Z,20.05
2018-10-16T00:57:16.335Z,19.00
2018-10-16T00:59:43.528Z,18.23
2018-10-16T01:02:10.729Z,18.85
2018-10-16T01:04:38.017Z,17.07
2018-10-16T01:07:05.205Z,17.20
2018-10-16T01:09:32.389Z,19.20
2018-10-16T01:11:59.603Z,19.62
2018-10-16T01:14:26.786Z,18.00
2018-10-16T01:16:53.970Z,19.65
2018-10-16T01:19:21.171Z,18.42
2018-10-16T01:21:48.351Z,20.43
2018-10-16T01:24:15.530Z,18.10
2018-10-16T01:26:42.717Z,22.17
2018-10-16T01:29:09.912Z,21.95
2018-10-16T01:31:37.175Z,21.62
2018-10-16T01:34:04.369Z,21.02
2018-10-16T01:36:31.563Z,20.50
2018-10-16T01:38:58.755Z,22.82
2018-10-16T01:41:25.944Z,22.65
2018-10-16T01:43:53.232Z,21.75
2018-10-16T01:46:20.484Z,22.02
2018-10-16T01:48:47.668Z,21.77
2018-10-16T01:51:14.873Z,22.00
2018-10-16T01:53:42.078Z,21.82
2018-10-16T01:56:09.263Z,22.25
2018-10-16T01:58:36.545Z,19.80
2018-10-16T02:01:03.714Z,20.65
2018-10-16T02:03:30.903Z,21.80
2018-10-16T02:05:58.100Z,19.92
2018-10-16T02:08:25.308Z,19.25
2018-10-16T02:10:52.605Z,19.98
2018-10-16T02:13:19.786Z,19.40
2018-10-16T02:15:46.981Z,19.75
2018-10-16T02:18:14.186Z,20.70
2018-10-16T02:20:41.380Z,19.45
2018-10-16T02:23:08.580Z,18.70
2018-10-16T02:25:35.808Z,18.80
2018-10-16T02:28:03.364Z,19.92
2018-10-16T02:30:30.560Z,19.25
2018-10-16T02:32:57.770Z,19.70
2018-10-16T02:35:25.021Z,19.25
2018-10-16T02:37:52.275Z,19.90
2018-10-16T02:40:19.483Z,19.23
2018-10-16T02:42:46.653Z,18.48
2018-10-16T02:45:13.862Z,18.62
2018-10-16T02:47:41.034Z,19.67
2018-10-16T02:50:09.299Z,20.15
2018-10-16T02:52:36.563Z,19.60
2018-10-16T02:55:03.755Z,19.50
2018-10-16T02:57:31.008Z,17.82
2018-10-16T02:59:58.207Z,20.40
2018-10-16T03:02:25.505Z,19.07
2018-10-16T03:04:52.707Z,19.75
2018-10-16T03:07:19.910Z,19.70
2018-10-16T03:09:47.126Z,18.10
2018-10-16T03:12:14.318Z,17.62
2018-10-16T03:14:41.512Z,18.17
2018-10-16T03:17:08.708Z,19.30
2018-10-16T03:19:35.908Z,20.17
2018-10-16T03:22:03.225Z,18.85
2018-10-16T03:24:30.405Z,19.42
2018-10-16T03:26:57.592Z,18.42
2018-10-16T03:29:24.878Z,19.55
2018-10-16T03:31:52.083Z,19.40
2018-10-16T03:34:19.277Z,19.92
2018-10-16T03:36:46.476Z,20.15
2018-10-16T03:39:13.654Z,21.90
2018-10-16T03:41:40.843Z,21.37
2018-10-16T03:44:09.547Z,21.60
2018-10-16T03:46:36.736Z,20.72
2018-10-16T03:49:03.928Z,21.35
2018-10-16T03:51:31.123Z,22.10
2018-10-16T03:53:58.322Z,21.82
2018-10-16T03:56:26.249Z,22.45
2018-10-16T03:58:53.458Z,21.85
2018-10-16T04:01:20.815Z,21.95
2018-10-16T04:03:48.353Z,23.47
2018-10-16T04:06:15.535Z,21.37
2018-10-16T04:08:42.715Z,20.95
2018-10-16T04:11:09.922Z,20.23
2018-10-16T04:13:37.307Z,21.68
2018-10-16T04:16:04.717Z,20.08
2018-10-16T04:18:31.928Z,21.65
2018-10-16T04:20:59.142Z,21.20
2018-10-16T04:23:26.322Z,24.82
2018-10-16T04:25:53.515Z,25.00
2018-10-16T04:28:20.772Z,26.30
2018-10-16T04:30:48.024Z,24.25
2018-10-16T04:33:15.243Z,23.30
2018-10-16T04:35:42.424Z,24.60
2018-10-16T04:38:09.599Z,24.55
2018-10-16T04:40:36.794Z,25.68
2018-10-16T04:43:04.081Z,25.43
2018-10-16T04:45:31.258Z,27.13
2018-10-16T04:47:58.452Z,25.57
2018-10-16T04:50:25.671Z,25.20
2018-10-16T04:52:52.873Z,26.93
2018-10-16T04:55:20.139Z,25.70
2018-10-16T04:57:47.387Z,26.85
2018-10-16T05:00:14.575Z,27.55
2018-10-16T05:02:42.186Z,25.30
2018-10-16T05:05:11.550Z,24.25
2018-10-16T05:07:38.740Z,22.02
2018-10-16T05:10:06.209Z,21.37
2018-10-16T05:12:33.422Z,22.37
2018-10-16T05:15:00.598Z,22.10
2018-10-16T05:17:27.779Z,21.35
2018-10-16T05:19:54.967Z,22.27
2018-10-16T05:22:22.181Z,22.00
2018-10-16T05:24:49.372Z,19.73
2018-10-16T05:27:16.559Z,22.60
2018-10-16T05:29:43.759Z,22.07
2018-10-16T05:32:11.070Z,21.62
2018-10-16T05:34:38.244Z,21.20
2018-10-16T05:37:05.449Z,22.75
2018-10-16T05:39:32.730Z,24.25
2018-10-16T05:41:59.935Z,23.38
2018-10-16T05:44:27.140Z,22.17
2018-10-16T05:46:54.335Z,23.95
2018-10-16T05:49:21.637Z,22.95
2018-10-16T05:51:48.831Z,22.20
2018-10-16T05:54:16.026Z,22.60
2018-10-16T05:56:43.204Z,22.05
2018-10-16T05:59:10.403Z,20.95
2018-10-16T06:01:37.594Z,24.30
2018-10-16T06:04:04.806Z,23.20
2018-10-16T06:06:31.996Z,23.25
2018-10-16T06:08:59.179Z,23.80
2018-10-16T06:11:26.371Z,23.67
2018-10-16T06:13:53.557Z,22.50
2018-10-16T06:16:20.739Z,22.70
2018-10-16T06:18:47.931Z,22.90
2018-10-16T06:21:15.103Z,24.00
2018-10-16T06:23:42.291Z,22.73
2018-10-16T06:26:10.414Z,23.35
2018-10-16T06:28:37.611Z,23.47
2018-10-16T06:31:04.804Z,23.40
2018-10-16T06:33:32.280Z,24.72
2018-10-16T06:35:59.488Z,22.25
2018-10-16T06:38:26.677Z,24.20
2018-10-16T06:40:54.096Z,20.15
2018-10-16T06:43:21.083Z,21.93
2018-10-16T06:45:48.280Z,22.75
2018-10-16T06:48:15.771Z,21.62
2018-10-16T06:50:42.691Z,21.73
2018-10-16T06:53:09.919Z,20.77
2018-10-16T06:55:37.098Z,20.97
2018-10-16T06:58:04.797Z,22.13
2018-10-16T07:00:31.975Z,22.25
2018-10-16T07:02:59.197Z,21.42
2018-10-16T07:05:26.449Z,23.15
2018-10-16T07:07:53.701Z,21.25
2018-10-16T07:10:20.895Z,22.27
2018-10-16T07:12:48.088Z,20.92
2018-10-16T07:15:15.278Z,22.48
2018-10-16T07:17:42.583Z,21.55
2018-10-16T07:20:09.967Z,22.20
2018-10-16T07:22:37.150Z,20.80
2018-10-16T07:25:05.243Z,21.10
2018-10-16T07:27:32.436Z,21.80
2018-10-16T07:29:59.632Z,22.27
2018-10-16T07:32:26.837Z,22.58
2018-10-16T07:34:54.036Z,22.27
2018-10-16T07:37:21.223Z,19.98
2018-10-16T07:39:48.409Z,22.62
2018-10-16T07:42:15.623Z,21.60
2018-10-16T07:44:42.800Z,19.07
2018-10-16T07:47:09.983Z,21.15
2018-10-16T07:49:37.183Z,20.85
2018-10-16T07:52:04.444Z,22.45
2018-10-16T07:54:31.632Z,21.77
2018-10-16T07:56:58.852Z,21.68
2018-10-16T07:59:26.094Z,20.20
2018-10-16T08:01:53.312Z,21.90
2018-10-16T08:04:20.534Z,21.77
2018-10-16T08:06:47.731Z,23.45
2018-10-16T08:09:15.971Z,20.20
2018-10-16T08:11:45.087Z,20.92
2018-10-16T08:14:12.786Z,21.05
2018-10-16T08:16:39.967Z,23.30
2018-10-16T08:19:07.188Z,20.60
2018-10-16T08:21:34.387Z,20.90
2018-10-16T08:24:01.799Z,21.57
2018-10-16T08:26:29.048Z,20.17
2018-10-16T08:28:56.255Z,21.52
2018-10-16T08:31:23.463Z,19.90
2018-10-16T08:33:50.700Z,21.23
2018-10-16T08:36:18.072Z,21.25
2018-10-16T08:38:50.491Z,19.73
2018-10-16T08:41:17.687Z,19.77
2018-10-16T08:43:51.795Z,17.82
2018-10-16T08:46:24.842Z,17.80
2018-10-16T08:48:57.957Z,18.32
2018-10-16T08:51:28.548Z,18.40
2018-10-16T08:53:56.061Z,18.62
2018-10-16T08:56:23.312Z,17.82
2018-10-16T08:58:50.566Z,17.73
2018-10-16T09:01:17.758Z,19.30
2018-10-16T09:03:45.040Z,18.92
2018-10-16T09:06:12.227Z,18.55
2018-10-16T09:08:39.454Z,19.57
2018-10-16T09:11:06.662Z,21.20
2018-10-16T09:23:21.199Z,20.80
2018-10-16T09:25:48.383Z,19.55
2018-10-16T09:28:15.599Z,18.92
2018-10-16T09:30:42.951Z,16.82
2018-10-16T09:33:10.153Z,17.55
2018-10-16T09:35:37.693Z,17.82
2018-10-16T09:38:05.005Z,20.02
2018-10-16T09:40:32.142Z,18.40
2018-10-16T09:42:59.344Z,18.80
2018-10-16T09:45:26.552Z,15.78
2018-10-16T09:47:53.768Z,15.20
2018-10-16T09:50:20.975Z,16.70
2018-10-16T09:52:48.172Z,15.58
2018-10-16T09:55:15.383Z,13.15
2018-10-16T09:57:42.574Z,13.78
2018-10-16T10:00:15.800Z,14.43
2018-10-16T10:02:43.033Z,14.00
2018-10-16T10:05:10.243Z,12.68
2018-10-16T10:07:37.435Z,14.23
2018-10-16T10:10:04.860Z,12.82
2018-10-16T10:12:32.059Z,13.78
2018-10-16T10:14:59.277Z,15.50
2018-10-16T10:17:26.632Z,14.55
2018-10-16T10:19:53.804Z,13.75
2018-10-16T10:22:20.988Z,13.18
2018-10-16T10:24:48.706Z,13.72
2018-10-16T10:27:15.948Z,13.60
2018-10-16T10:29:43.205Z,14.13
2018-10-16T10:32:10.452Z,14.75
2018-10-16T10:34:37.655Z,14.15
2018-10-16T10:37:04.885Z,13.85
2018-10-16T10:39:32.109Z,13.62
2018-10-16T10:41:59.325Z,14.15
2018-10-16T10:44:26.552Z,13.70
2018-10-16T10:46:53.758Z,14.18
2018-10-16T10:49:20.960Z,13.80
2018-10-16T10:51:48.162Z,14.43
2018-10-16T10:54:15.406Z,14.15
2018-10-16T10:56:42.669Z,13.65
2018-10-16T10:59:09.918Z,13.85
2018-10-16T11:01:37.170Z,12.88
2018-10-16T11:04:04.993Z,13.70
2018-10-16T11:06:32.176Z,13.62
2018-10-16T11:08:59.396Z,12.70
2018-10-16T11:11:26.592Z,13.43
2018-10-16T11:13:53.806Z,12.95
2018-10-16T11:16:21.016Z,13.55
2018-10-16T11:18:48.223Z,12.85
2018-10-16T11:21:15.513Z,13.98
2018-10-16T11:23:42.677Z,14.10
2018-10-16T11:26:09.883Z,13.10
2018-10-16T11:28:37.149Z,12.00
2018-10-16T11:31:04.755Z,11.97
2018-10-16T11:33:31.966Z,12.82
2018-10-16T11:35:59.154Z,14.03
2018-10-16T11:38:26.465Z,12.43
2018-10-16T11:40:53.718Z,12.70
2018-10-16T11:43:20.919Z,12.85
2018-10-16T11:45:48.183Z,14.40
2018-10-16T11:48:15.371Z,13.03
2018-10-16T11:50:42.585Z,13.03
2018-10-16T11:53:09.786Z,11.60
2018-10-16T11:55:36.987Z,12.17
2018-10-16T11:58:04.197Z,10.20
2018-10-16T12:00:31.420Z,11.37
2018-10-16T12:02:58.636Z,12.13
2018-10-16T12:05:25.966Z,11.73
2018-10-16T12:07:53.178Z,13.67
2018-10-16T12:10:20.356Z,11.80
2018-10-16T12:12:47.540Z,11.83
2018-10-16T12:15:14.754Z,11.90
2018-10-16T12:17:52.490Z,12.20
2018-10-16T12:20:25.082Z,10.67
2018-10-16T12:22:52.264Z,13.07
2018-10-16T12:25:19.453Z,12.40
2018-10-16T12:27:46.700Z,11.30
2018-10-16T12:30:13.921Z,12.27
2018-10-16T12:32:41.141Z,11.80
2018-10-16T12:35:08.367Z,11.43
2018-10-16T12:37:35.776Z,11.00
2018-10-16T12:40:03.009Z,10.15
2018-10-16T12:42:30.205Z,12.13
2018-10-16T12:44:57.614Z,12.47
2018-10-16T12:47:24.887Z,13.88
2018-10-16T12:49:52.078Z,11.55
2018-10-16T12:52:19.285Z,11.68
2018-10-16T12:54:46.487Z,12.23
2018-10-16T12:57:13.723Z,12.30
2018-10-16T12:59:40.911Z,10.82
2018-10-16T13:02:08.127Z,10.10
2018-10-16T13:04:35.344Z,11.33
2018-10-16T13:07:12.968Z,11.28
2018-10-16T13:09:40.255Z,12.00
2018-10-16T13:12:07.504Z,11.20
2018-10-16T13:14:34.747Z,11.93
2018-10-16T13:17:02.228Z,11.00
2018-10-16T13:19:29.379Z,11.55
2018-10-16T13:21:56.570Z,10.40
2018-10-16T13:24:23.786Z,8.85
2018-10-16T13:26:50.979Z,10.50
2018-10-16T13:29:18.415Z,10.48
2018-10-16T13:31:45.558Z,10.58
2018-10-16T13:34:12.889Z,9.73
2018-10-16T13:36:40.024Z,10.55
2018-10-16T13:39:07.252Z,11.93
2018-10-16T13:41:34.471Z,10.48
2018-10-16T13:44:01.705Z,9.95
2018-10-16T13:46:28.872Z,11.05
2018-10-16T13:48:56.088Z,10.90
2018-10-16T13:51:23.281Z,10.85
2018-10-16T13:53:50.528Z,10.03
2018-10-16T13:56:17.743Z,11.53
2018-10-16T13:58:44.986Z,10.30
2018-10-16T14:01:12.183Z,10.78
2018-10-16T14:03:39.371Z,10.80
2018-10-16T14:06:06.584Z,10.40
2018-10-16T14:08:33.775Z,10.90
2018-10-16T14:11:00.978Z,10.85
2018-10-16T14:13:28.179Z,10.03
2018-10-16T14:15:55.445Z,9.63
2018-10-16T14:18:22.609Z,11.60
2018-10-16T14:20:49.893Z,10.58
2018-10-16T14:23:17.087Z,10.30
2018-10-16T14:25:44.279Z,10.08
2018-10-16T14:28:11.666Z,9.45
2018-10-16T14:30:38.715Z,9.93
2018-10-16T14:33:05.944Z,9.35
2018-10-16T14:35:33.176Z,10.30
2018-10-16T14:38:00.399Z,10.90
2018-10-16T14:40:27.625Z,9.40
2018-10-16T14:42:54.836Z,10.70
2018-10-16T14:45:22.026Z,9.37
2018-10-16T14:47:49.269Z,9.00
2018-10-16T14:50:16.463Z,9.47
2018-10-16T14:52:43.803Z,10.13
2018-10-16T14:55:11.012Z,9.70
2018-10-16T14:57:38.298Z,10.70
2018-10-16T15:00:06.887Z,12.60
2018-10-16T15:02:34.551Z,12.57
2018-10-16T15:05:01.753Z,9.13
2018-10-16T15:07:28.951Z,8.97
2018-10-16T15:09:56.261Z,9.33
2018-10-16T15:12:28.766Z,9.97
2018-10-16T15:14:55.994Z,9.63
2018-10-16T15:17:23.252Z,9.53
2018-10-16T15:19:50.486Z,10.63
2018-10-16T15:22:17.685Z,9.43
2018-10-16T15:24:44.873Z,10.33
2018-10-16T15:27:12.066Z,11.90
2018-10-16T15:29:39.250Z,14.90
2018-10-16T15:32:06.483Z,10.80
2018-10-16T15:34:33.663Z,10.97
2018-10-16T15:37:00.843Z,11.83
2018-10-16T15:39:28.045Z,11.48
2018-10-16T15:41:55.263Z,12.78
2018-10-16T15:44:22.463Z,13.40
2018-10-16T15:46:49.660Z,12.03
2018-10-16T15:49:16.852Z,13.23
2018-10-16T15:51:44.036Z,11.20
2018-10-16T15:54:11.266Z,11.17
2018-10-16T15:56:38.450Z,10.03
2018-10-16T15:59:05.644Z,10.45
2018-10-16T16:01:32.863Z,11.12
2018-10-16T16:04:00.128Z,11.68
2018-10-16T16:06:27.311Z,12.40
2018-10-16T16:08:54.682Z,16.15
2018-10-16T16:11:21.888Z,14.73
2018-10-16T16:13:49.088Z,14.05
2018-10-16T16:16:16.375Z,13.72
2018-10-16T16:18:43.569Z,12.60
2018-10-16T16:21:10.768Z,13.78
2018-10-16T16:23:38.277Z,12.40
2018-10-16T16:26:05.507Z,13.55
2018-10-16T16:28:32.732Z,12.95
2018-10-16T16:31:00.037Z,11.93
2018-10-16T16:33:27.251Z,11.97
2018-10-16T16:35:54.496Z,13.15
2018-10-16T16:38:21.670Z,12.05
2018-10-16T16:40:48.881Z,12.63
2018-10-16T16:43:16.092Z,11.33
2018-10-16T16:45:43.281Z,10.93
2018-10-16T16:48:10.494Z,11.08
2018-10-16T16:50:37.700Z,10.43
2018-10-16T16:53:04.951Z,11.73
2018-10-16T16:55:32.127Z,12.95
2018-10-16T16:57:59.369Z,12.13
2018-10-16T17:00:26.609Z,11.95
2018-10-16T17:02:53.821Z,11.93
2018-10-16T17:05:21.068Z,11.45
2018-10-16T17:07:48.257Z,14.20
2018-10-16T17:10:15.489Z,13.28
2018-10-16T17:12:42.662Z,13.08
2018-10-16T17:15:11.711Z,13.03
2018-10-16T17:17:39.040Z,13.20
2018-10-16T17:20:06.953Z,12.88
2018-10-16T17:22:34.144Z,12.80
2018-10-16T17:25:01.512Z,14.55
2018-10-16T17:27:28.557Z,12.70
2018-10-16T17:29:55.748Z,14.43
2018-10-16T17:32:22.939Z,15.08
2018-10-16T17:34:50.123Z,14.87
2018-10-16T17:37:17.299Z,16.50
2018-10-16T17:39:44.590Z,17.00
2018-10-16T17:42:11.842Z,16.27
2018-10-16T17:44:39.018Z,13.95
2018-10-16T17:47:06.201Z,13.10
2018-10-16T17:49:33.405Z,14.63
2018-10-16T17:52:00.636Z,13.85
2018-10-16T17:54:27.816Z,14.15
2018-10-16T17:56:55.059Z,14.63
2018-10-16T17:59:22.195Z,16.87
2018-10-16T18:01:49.387Z,15.32
2018-10-16T18:04:16.619Z,15.63
2018-10-16T18:06:43.809Z,18.10
2018-10-16T18:09:11.034Z,15.28
2018-10-16T18:11:38.266Z,13.60
2018-10-16T18:14:05.663Z,14.10
2018-10-16T18:16:32.858Z,12.88
2018-10-16T18:19:00.067Z,14.15
2018-10-16T18:21:27.363Z,13.70
2018-10-16T18:23:54.643Z,13.30
2018-10-16T18:26:21.800Z,14.75
2018-10-16T18:28:48.983Z,13.10
2018-10-16T18:31:16.167Z,13.50
2018-10-16T18:33:43.371Z,11.95
2018-10-16T18:36:10.585Z,12.75
2018-10-16T18:38:37.776Z,14.38
2018-10-16T18:41:05.108Z,12.90
2018-10-16T18:43:32.310Z,13.83
2018-10-16T18:45:59.486Z,12.33
2018-10-16T18:48:26.750Z,15.30
2018-10-16T18:50:53.937Z,16.65
2018-10-16T18:53:21.106Z,14.70
2018-10-16T18:55:48.289Z,13.15
2018-10-16T18:58:15.493Z,12.33
2018-10-16T19:00:42.678Z,14.95
2018-10-16T19:03:09.923Z,13.98
2018-10-16T19:05:37.109Z,11.95
2018-10-16T19:08:04.380Z,13.60
2018-10-16T19:10:31.520Z,13.98
2018-10-16T19:13:00.950Z,13.38
2018-10-16T19:15:28.275Z,14.20
2018-10-16T19:17:55.458Z,12.70
2018-10-16T19:20:22.658Z,12.40
2018-10-16T19:22:49.871Z,13.55
2018-10-16T19:25:18.896Z,13.38
2018-10-16T19:27:46.173Z,14.10
2018-10-16T19:30:13.450Z,13.30
2018-10-16T19:32:40.642Z,13.58
2018-10-16T19:35:08.696Z,12.47
2018-10-16T19:37:35.939Z,12.95
2018-10-16T19:40:03.183Z,14.35
2018-10-16T19:42:30.364Z,14.60
2018-10-16T19:44:57.606Z,15.48
2018-10-16T19:47:24.754Z,15.70
2018-10-16T19:49:51.930Z,16.55
2018-10-16T19:52:19.123Z,16.45
2018-10-16T19:54:46.320Z,16.82
2018-10-16T19:57:13.599Z,16.25
2018-10-16T19:59:40.780Z,15.00
2018-10-16T20:02:08.646Z,14.87
2018-10-16T20:04:36.203Z,15.28
2018-10-16T20:07:03.606Z,15.83
2018-10-16T20:09:30.814Z,16.95
2018-10-16T20:11:58.004Z,15.98
2018-10-16T20:14:25.195Z,17.60
2018-10-16T20:16:52.374Z,16.87
2018-10-16T20:19:19.554Z,17.12
2018-10-16T20:21:46.821Z,16.95
2018-10-16T20:24:14.006Z,18.45
2018-10-16T20:26:41.203Z,18.75
2018-10-16T20:29:08.413Z,17.15
2018-10-16T20:31:35.607Z,18.02
2018-10-16T20:34:02.803Z,19.85
2018-10-16T20:36:30.047Z,17.85
2018-10-16T20:38:57.199Z,17.73
2018-10-16T20:41:24.404Z,17.07
2018-10-16T20:43:51.593Z,18.00
2018-10-16T20:46:18.823Z,17.37
2018-10-16T20:48:46.080Z,14.20
2018-10-16T20:51:13.279Z,15.50
2018-10-16T20:53:40.477Z,16.15
2018-10-16T20:56:07.680Z,16.65
2018-10-16T20:58:34.883Z,17.57
2018-10-16T21:01:02.140Z,16.60
2018-10-16T21:03:29.354Z,20.10
2018-10-16T21:05:56.732Z,17.75
2018-10-16T21:08:23.789Z,19.73
2018-10-16T21:10:50.987Z,18.32
2018-10-16T21:13:18.190Z,18.60
2018-10-16T21:15:45.389Z,19.48
2018-10-16T21:18:12.591Z,19.80
2018-10-16T21:20:39.799Z,21.93
2018-10-16T21:23:07.049Z,21.10
2018-10-16T21:25:34.197Z,19.37
2018-10-16T21:28:01.394Z,19.30
2018-10-16T21:30:28.597Z,21.87
2018-10-16T21:32:55.789Z,20.62
2018-10-16T21:35:23.017Z,20.57
2018-10-16T21:37:50.198Z,17.77
2018-10-16T21:40:17.396Z,18.37
2018-10-16T21:42:44.593Z,19.02
2018-10-16T21:45:11.860Z,19.00
2018-10-16T21:47:39.124Z,19.62
2018-10-16T21:50:06.523Z,17.62
2018-10-16T21:52:33.723Z,19.77
2018-10-16T21:55:01.007Z,21.20
2018-10-16T21:57:28.383Z,19.02
2018-10-16T21:59:55.612Z,19.10
2018-10-16T22:02:28.419Z,20.45
2018-10-16T22:04:55.646Z,22.10
2018-10-16T22:07:22.830Z,22.07
2018-10-16T22:09:50.039Z,22.45
2018-10-16T22:12:17.231Z,19.87
2018-10-16T22:14:44.566Z,18.65
2018-10-16T22:17:11.844Z,18.27
2018-10-16T22:19:39.008Z,19.50
2018-10-16T22:22:06.308Z,19.70
2018-10-16T22:24:33.505Z,20.08
2018-10-16T22:27:00.722Z,19.85
2018-10-16T22:29:28.296Z,19.90
2018-10-16T22:31:55.447Z,21.87
2018-10-16T22:34:22.656Z,21.48
2018-10-16T22:36:49.846Z,22.50
2018-10-16T22:39:17.143Z,19.90
2018-10-16T22:41:44.395Z,19.10
2018-10-16T22:44:11.583Z,19.77
2018-10-16T22:46:38.784Z,19.62
2018-10-16T22:49:06.135Z,21.00
2018-10-16T22:51:33.467Z,18.82
2018-10-16T22:54:00.679Z,19.87
2018-10-16T22:56:27.870Z,19.15
2018-10-16T22:58:55.122Z,21.12
2018-10-16T23:01:22.319Z,19.82
2018-10-16T23:03:49.515Z,22.22
2018-10-16T23:06:16.726Z,22.65
2018-10-16T23:08:43.928Z,22.80
2018-10-16T23:11:11.184Z,23.90
2018-10-16T23:13:38.339Z,24.15
2018-10-16T23:16:05.530Z,24.87
2018-10-16T23:18:32.746Z,24.65
2018-10-16T23:21:00.022Z,23.50
2018-10-16T23:23:27.214Z,26.10
2018-10-16T23:25:54.527Z,26.00
2018-10-16T23:28:21.723Z,22.98
2018-10-16T23:30:48.914Z,24.82
2018-10-16T23:33:16.119Z,21.05
2018-10-16T23:35:43.312Z,22.90
2018-10-16T23:38:10.527Z,23.90
2018-10-16T23:40:37.719Z,23.70
2018-10-16T23:43:05.211Z,23.95
2018-10-16T23:45:32.423Z,21.40
2018-10-16T23:47:59.694Z,24.05
2018-10-16T23:50:26.922Z,25.00
2018-10-16T23:52:54.110Z,23.40
2018-10-16T23:55:21.299Z,25.23
2018-10-16T23:57:48.547Z,25.57
